sensor_id;sensor_type;location;lat;lon;timestamp;pressure;altitude;pressure_sealevel;temperature;humidity
48244;BME280;34053;51.088;6.572;2022-07-29T00:02:14;100954.19;;;21.60;40.15
48244;BME280;34053;51.088;6.572;2022-07-29T00:04:45;100943.50;;;21.60;40.14
48244;BME280;34053;51.088;6.572;2022-07-29T00:07:15;100935.88;;;21.54;40.33
48244;BME280;34053;51.088;6.572;2022-07-29T00:09:49;100940.09;;;21.58;40.32
48244;BME280;34053;51.088;6.572;2022-07-29T00:12:21;100934.81;;;21.57;39.98
48244;BME280;34053;51.088;6.572;2022-07-29T00:14:53;100927.88;;;21.54;40.49
48244;BME280;34053;51.088;6.572;2022-07-29T00:17:24;100933.31;;;21.52;39.94
48244;BME280;34053;51.088;6.572;2022-07-29T00:19:54;100929.06;;;21.50;40.58
48244;BME280;34053;51.088;6.572;2022-07-29T00:22:25;100922.00;;;21.49;40.19
48244;BME280;34053;51.088;6.572;2022-07-29T00:24:55;100920.28;;;21.48;40.88
48244;BME280;34053;51.088;6.572;2022-07-29T00:27:26;100915.06;;;21.46;40.42
48244;BME280;34053;51.088;6.572;2022-07-29T00:29:56;100910.16;;;21.40;41.04
48244;BME280;34053;51.088;6.572;2022-07-29T00:32:27;100908.13;;;21.44;40.59
48244;BME280;34053;51.088;6.572;2022-07-29T00:34:57;100903.75;;;21.43;40.46
48244;BME280;34053;51.088;6.572;2022-07-29T00:37:47;100906.63;;;21.39;40.78
48244;BME280;34053;51.088;6.572;2022-07-29T00:40:20;100896.81;;;21.40;40.86
48244;BME280;34053;51.088;6.572;2022-07-29T00:42:51;100895.53;;;21.33;40.99
48244;BME280;34053;51.088;6.572;2022-07-29T00:45:22;100887.44;;;21.34;41.01
48244;BME280;34053;51.088;6.572;2022-07-29T00:47:52;100883.81;;;21.35;40.39
48244;BME280;34053;51.088;6.572;2022-07-29T00:50:23;100883.25;;;21.30;41.29
48244;BME280;34053;51.088;6.572;2022-07-29T00:52:54;100879.94;;;21.27;41.15
48244;BME280;34053;51.088;6.572;2022-07-29T00:55:26;100884.13;;;21.31;40.73
48244;BME280;34053;51.088;6.572;2022-07-29T00:58:00;100874.41;;;21.30;40.80
48244;BME280;34053;51.088;6.572;2022-07-29T01:00:31;100869.28;;;21.27;40.97
48244;BME280;34053;51.088;6.572;2022-07-29T01:03:05;100872.81;;;21.27;41.10
48244;BME280;34053;51.088;6.572;2022-07-29T01:05:36;100870.16;;;21.27;40.71
48244;BME280;34053;51.088;6.572;2022-07-29T01:08:11;100869.50;;;21.23;40.97
48244;BME280;34053;51.088;6.572;2022-07-29T01:10:45;100885.41;;;21.25;41.00
48244;BME280;34053;51.088;6.572;2022-07-29T01:13:17;100881.03;;;21.24;41.05
48244;BME280;34053;51.088;6.572;2022-07-29T01:15:54;100874.19;;;21.20;41.26
48244;BME280;34053;51.088;6.572;2022-07-29T01:18:35;100878.47;;;21.22;40.69
48244;BME280;34053;51.088;6.572;2022-07-29T01:24:28;100867.16;;;21.19;41.17
48244;BME280;34053;51.088;6.572;2022-07-29T01:30:08;100870.03;;;21.16;41.07
48244;BME280;34053;51.088;6.572;2022-07-29T01:32:39;100870.97;;;21.15;41.48
48244;BME280;34053;51.088;6.572;2022-07-29T01:35:16;100870.16;;;21.14;41.17
48244;BME280;34053;51.088;6.572;2022-07-29T01:37:57;100873.66;;;21.15;41.20
48244;BME280;34053;51.088;6.572;2022-07-29T01:40:43;100870.97;;;21.15;41.23
48244;BME280;34053;51.088;6.572;2022-07-29T01:43:23;100877.28;;;21.14;41.65
48244;BME280;34053;51.088;6.572;2022-07-29T01:49:20;100876.75;;;21.09;41.49
48244;BME280;34053;51.088;6.572;2022-07-29T01:52:02;100884.00;;;21.06;41.95
48244;BME280;34053;51.088;6.572;2022-07-29T01:54:40;100891.25;;;21.04;42.37
48244;BME280;34053;51.088;6.572;2022-07-29T01:57:19;100894.97;;;21.02;41.76
48244;BME280;34053;51.088;6.572;2022-07-29T01:59:51;100903.84;;;21.02;41.95
48244;BME280;34053;51.088;6.572;2022-07-29T02:02:23;100897.75;;;21.00;41.80
48244;BME280;34053;51.088;6.572;2022-07-29T02:04:56;100902.34;;;20.98;42.13
48244;BME280;34053;51.088;6.572;2022-07-29T02:07:29;100897.22;;;20.95;42.71
48244;BME280;34053;51.088;6.572;2022-07-29T02:10:03;100889.56;;;20.90;42.88
48244;BME280;34053;51.088;6.572;2022-07-29T02:12:38;100887.19;;;20.86;42.52
48244;BME280;34053;51.088;6.572;2022-07-29T02:15:11;100893.78;;;20.80;43.11
48244;BME280;34053;51.088;6.572;2022-07-29T02:17:46;100889.94;;;20.84;42.58
48244;BME280;34053;51.088;6.572;2022-07-29T02:20:19;100894.09;;;20.75;43.30
48244;BME280;34053;51.088;6.572;2022-07-29T02:22:50;100894.84;;;20.78;43.22
48244;BME280;34053;51.088;6.572;2022-07-29T02:25:23;100890.84;;;20.70;42.52
48244;BME280;34053;51.088;6.572;2022-07-29T02:27:55;100889.16;;;20.69;42.75
48244;BME280;34053;51.088;6.572;2022-07-29T02:30:30;100883.06;;;20.67;43.39
48244;BME280;34053;51.088;6.572;2022-07-29T02:33:01;100890.31;;;20.65;42.76
48244;BME280;34053;51.088;6.572;2022-07-29T02:35:32;100897.75;;;20.60;43.12
48244;BME280;34053;51.088;6.572;2022-07-29T02:38:03;100890.25;;;20.52;43.49
48244;BME280;34053;51.088;6.572;2022-07-29T02:40:53;100913.00;;;20.58;42.89
48244;BME280;34053;51.088;6.572;2022-07-29T02:43:28;100921.19;;;20.55;42.78
48244;BME280;34053;51.088;6.572;2022-07-29T02:46:02;100918.63;;;20.53;43.23
48244;BME280;34053;51.088;6.572;2022-07-29T02:48:37;100929.28;;;20.53;43.36
48244;BME280;34053;51.088;6.572;2022-07-29T02:51:19;100928.44;;;20.53;43.38
48244;BME280;34053;51.088;6.572;2022-07-29T02:53:56;100943.69;;;20.51;42.71
48244;BME280;34053;51.088;6.572;2022-07-29T02:56:31;100955.19;;;20.51;42.80
48244;BME280;34053;51.088;6.572;2022-07-29T02:59:08;100953.56;;;20.49;43.95
48244;BME280;34053;51.088;6.572;2022-07-29T03:01:42;100939.06;;;20.40;43.85
48244;BME280;34053;51.088;6.572;2022-07-29T03:04:15;100938.19;;;20.39;43.87
48244;BME280;34053;51.088;6.572;2022-07-29T03:06:46;100936.47;;;20.38;43.70
48244;BME280;34053;51.088;6.572;2022-07-29T03:09:19;100917.81;;;20.38;44.47
48244;BME280;34053;51.088;6.572;2022-07-29T03:11:50;100887.97;;;20.33;45.31
48244;BME280;34053;51.088;6.572;2022-07-29T03:14:25;100877.59;;;20.28;47.42
48244;BME280;34053;51.088;6.572;2022-07-29T03:16:57;100896.91;;;20.32;45.76
48244;BME280;34053;51.088;6.572;2022-07-29T03:19:28;100929.53;;;20.36;47.59
48244;BME280;34053;51.088;6.572;2022-07-29T03:21:59;100942.78;;;20.23;47.66
48244;BME280;34053;51.088;6.572;2022-07-29T03:24:39;100942.78;;;20.23;49.18
48244;BME280;34053;51.088;6.572;2022-07-29T03:27:10;100929.53;;;20.08;49.02
48244;BME280;34053;51.088;6.572;2022-07-29T03:29:40;100910.69;;;20.11;47.70
48244;BME280;34053;51.088;6.572;2022-07-29T03:32:11;100905.72;;;20.05;48.91
48244;BME280;34053;51.088;6.572;2022-07-29T03:34:41;100903.06;;;20.05;48.42
48244;BME280;34053;51.088;6.572;2022-07-29T03:37:12;100905.94;;;20.02;47.93
48244;BME280;34053;51.088;6.572;2022-07-29T03:39:42;100912.41;;;19.98;48.57
48244;BME280;34053;51.088;6.572;2022-07-29T03:42:15;100921.75;;;19.91;48.12
48244;BME280;34053;51.088;6.572;2022-07-29T03:44:48;100928.69;;;19.93;46.85
48244;BME280;34053;51.088;6.572;2022-07-29T03:47:22;100917.47;;;19.88;47.08
48244;BME280;34053;51.088;6.572;2022-07-29T03:49:59;100916.88;;;19.83;47.58
48244;BME280;34053;51.088;6.572;2022-07-29T03:52:32;100915.06;;;19.84;47.85
48244;BME280;34053;51.088;6.572;2022-07-29T03:55:03;100909.19;;;19.78;48.73
48244;BME280;34053;51.088;6.572;2022-07-29T03:57:36;100905.50;;;19.66;49.32
48244;BME280;34053;51.088;6.572;2022-07-29T04:00:09;100903.19;;;19.60;49.02
48244;BME280;34053;51.088;6.572;2022-07-29T04:02:40;100916.44;;;19.62;48.55
48244;BME280;34053;51.088;6.572;2022-07-29T04:05:17;100919.25;;;19.59;49.09
48244;BME280;34053;51.088;6.572;2022-07-29T04:07:48;100925.53;;;19.58;50.59
48244;BME280;34053;51.088;6.572;2022-07-29T04:10:19;100927.53;;;19.54;48.71
48244;BME280;34053;51.088;6.572;2022-07-29T04:12:49;100929.53;;;19.50;48.73
48244;BME280;34053;51.088;6.572;2022-07-29T04:15:20;100931.34;;;19.50;48.36
48244;BME280;34053;51.088;6.572;2022-07-29T04:17:50;100914.13;;;19.41;49.30
48244;BME280;34053;51.088;6.572;2022-07-29T04:20:21;100914.03;;;19.43;48.88
48244;BME280;34053;51.088;6.572;2022-07-29T04:22:51;100920.38;;;19.40;49.27
48244;BME280;34053;51.088;6.572;2022-07-29T04:25:22;100919.81;;;19.35;49.45
48244;BME280;34053;51.088;6.572;2022-07-29T04:27:53;100920.66;;;19.35;50.63
48244;BME280;34053;51.088;6.572;2022-07-29T04:30:33;100915.56;;;19.32;49.31
48244;BME280;34053;51.088;6.572;2022-07-29T04:33:06;100921.81;;;19.31;50.02
48244;BME280;34053;51.088;6.572;2022-07-29T04:35:37;100916.69;;;19.28;48.68
48244;BME280;34053;51.088;6.572;2022-07-29T04:38:08;100911.84;;;19.21;50.49
48244;BME280;34053;51.088;6.572;2022-07-29T04:40:38;100912.41;;;19.26;49.12
48244;BME280;34053;51.088;6.572;2022-07-29T04:43:09;100916.00;;;19.25;48.75
48244;BME280;34053;51.088;6.572;2022-07-29T04:45:39;100930.06;;;19.27;48.18
48244;BME280;34053;51.088;6.572;2022-07-29T04:48:10;100916.94;;;19.24;48.76
48244;BME280;34053;51.088;6.572;2022-07-29T04:50:43;100918.84;;;19.22;49.44
48244;BME280;34053;51.088;6.572;2022-07-29T04:53:14;100913.44;;;19.23;49.26
48244;BME280;34053;51.088;6.572;2022-07-29T04:55:45;100917.81;;;19.24;50.19
48244;BME280;34053;51.088;6.572;2022-07-29T04:58:16;100918.66;;;19.25;48.95
48244;BME280;34053;51.088;6.572;2022-07-29T05:00:46;100926.09;;;19.19;49.30
48244;BME280;34053;51.088;6.572;2022-07-29T05:03:18;100927.78;;;19.21;48.83
48244;BME280;34053;51.088;6.572;2022-07-29T05:05:51;100916.19;;;19.22;48.95
48244;BME280;34053;51.088;6.572;2022-07-29T05:08:22;100920.56;;;19.23;48.88
48244;BME280;34053;51.088;6.572;2022-07-29T05:10:52;100915.22;;;19.23;49.69
48244;BME280;34053;51.088;6.572;2022-07-29T05:13:25;100915.16;;;19.24;48.87
48244;BME280;34053;51.088;6.572;2022-07-29T05:15:56;100924.16;;;19.22;49.50
48244;BME280;34053;51.088;6.572;2022-07-29T05:18:28;100916.94;;;19.24;49.05
48244;BME280;34053;51.088;6.572;2022-07-29T05:20:59;100915.84;;;19.28;49.44
48244;BME280;34053;51.088;6.572;2022-07-29T05:23:29;100918.66;;;19.25;50.08
48244;BME280;34053;51.088;6.572;2022-07-29T05:26:00;100918.78;;;19.23;49.81
48244;BME280;34053;51.088;6.572;2022-07-29T05:28:33;100920.56;;;19.23;49.45
48244;BME280;34053;51.088;6.572;2022-07-29T05:31:05;100924.00;;;19.25;49.52
48244;BME280;34053;51.088;6.572;2022-07-29T05:33:35;100926.75;;;19.23;49.66
48244;BME280;34053;51.088;6.572;2022-07-29T05:36:06;100937.19;;;19.26;49.95
48244;BME280;34053;51.088;6.572;2022-07-29T05:38:37;100935.50;;;19.25;49.50
48244;BME280;34053;51.088;6.572;2022-07-29T05:41:08;100948.69;;;19.27;49.82
48244;BME280;34053;51.088;6.572;2022-07-29T05:43:38;100953.75;;;19.31;49.31
48244;BME280;34053;51.088;6.572;2022-07-29T05:46:09;100957.25;;;19.32;49.86
48244;BME280;34053;51.088;6.572;2022-07-29T05:48:39;100955.34;;;19.34;49.33
48244;BME280;34053;51.088;6.572;2022-07-29T05:51:10;100960.56;;;19.35;49.98
48244;BME280;34053;51.088;6.572;2022-07-29T05:53:40;100961.63;;;19.33;49.81
48244;BME280;34053;51.088;6.572;2022-07-29T05:56:12;100971.31;;;19.34;49.85
48244;BME280;34053;51.088;6.572;2022-07-29T05:58:42;100982.72;;;19.36;49.54
48244;BME280;34053;51.088;6.572;2022-07-29T06:01:13;100981.69;;;19.39;49.16
48244;BME280;34053;51.088;6.572;2022-07-29T06:03:44;100991.47;;;19.38;49.59
48244;BME280;34053;51.088;6.572;2022-07-29T06:06:14;100998.50;;;19.39;49.74
48244;BME280;34053;51.088;6.572;2022-07-29T06:08:45;101005.53;;;19.40;49.98
48244;BME280;34053;51.088;6.572;2022-07-29T06:11:18;101009.75;;;19.44;49.56
48244;BME280;34053;51.088;6.572;2022-07-29T06:13:51;101008.97;;;19.42;50.05
48244;BME280;34053;51.088;6.572;2022-07-29T06:16:22;100997.38;;;19.43;49.85
48244;BME280;34053;51.088;6.572;2022-07-29T06:18:52;100997.16;;;19.46;49.84
48244;BME280;34053;51.088;6.572;2022-07-29T06:21:25;101006.81;;;19.49;49.56
48244;BME280;34053;51.088;6.572;2022-07-29T06:23:56;101011.91;;;19.52;49.99
48244;BME280;34053;51.088;6.572;2022-07-29T06:26:27;101011.06;;;19.52;50.46
48244;BME280;34053;51.088;6.572;2022-07-29T06:28:57;101005.66;;;19.53;49.82
48244;BME280;34053;51.088;6.572;2022-07-29T06:31:28;101014.69;;;19.50;50.10
48244;BME280;34053;51.088;6.572;2022-07-29T06:33:58;101019.91;;;19.52;49.86
48244;BME280;34053;51.088;6.572;2022-07-29T06:36:29;101021.63;;;19.53;49.86
48244;BME280;34053;51.088;6.572;2022-07-29T06:38:59;101018.69;;;19.58;53.20
48244;BME280;34053;51.088;6.572;2022-07-29T06:41:30;101020.69;;;19.54;50.79
48244;BME280;34053;51.088;6.572;2022-07-29T06:44:00;101008.31;;;19.53;50.72
48244;BME280;34053;51.088;6.572;2022-07-29T06:46:31;101009.94;;;19.56;50.28
48244;BME280;34053;51.088;6.572;2022-07-29T06:49:02;101013.34;;;19.58;50.31
48244;BME280;34053;51.088;6.572;2022-07-29T06:51:35;100997.50;;;19.56;50.69
48244;BME280;34053;51.088;6.572;2022-07-29T06:54:06;101007.25;;;19.56;50.90
48244;BME280;34053;51.088;6.572;2022-07-29T06:56:37;101001.94;;;19.56;50.71
48244;BME280;34053;51.088;6.572;2022-07-29T06:59:09;100995.69;;;19.57;50.69
48244;BME280;34053;51.088;6.572;2022-07-29T07:01:42;100989.41;;;19.58;50.67
48244;BME280;34053;51.088;6.572;2022-07-29T07:04:13;100997.50;;;19.56;51.72
48244;BME280;34053;51.088;6.572;2022-07-29T07:06:44;100991.91;;;19.61;51.32
48244;BME280;34053;51.088;6.572;2022-07-29T07:09:14;100993.00;;;19.57;51.86
48244;BME280;34053;51.088;6.572;2022-07-29T07:11:45;100994.63;;;19.59;52.35
48244;BME280;34053;51.088;6.572;2022-07-29T07:14:15;100995.41;;;19.61;51.80
48244;BME280;34053;51.088;6.572;2022-07-29T07:16:46;100989.22;;;19.61;52.62
48244;BME280;34053;51.088;6.572;2022-07-29T07:19:16;100983.91;;;19.61;53.34
48244;BME280;34053;51.088;6.572;2022-07-29T07:21:49;100980.38;;;19.60;52.95
48244;BME280;34053;51.088;6.572;2022-07-29T07:24:19;100972.50;;;19.59;53.24
48244;BME280;34053;51.088;6.572;2022-07-29T07:26:55;100975.16;;;19.59;53.08
48244;BME280;34053;51.088;6.572;2022-07-29T07:29:26;100974.00;;;19.63;52.35
48244;BME280;34053;51.088;6.572;2022-07-29T07:31:57;100979.16;;;19.66;52.03
48244;BME280;34053;51.088;6.572;2022-07-29T07:34:28;100981.72;;;19.67;52.26
48244;BME280;34053;51.088;6.572;2022-07-29T07:37:00;100982.75;;;19.65;52.51
48244;BME280;34053;51.088;6.572;2022-07-29T07:39:33;100972.03;;;19.66;52.36
48244;BME280;34053;51.088;6.572;2022-07-29T07:42:04;100969.06;;;19.57;54.27
48244;BME280;34053;51.088;6.572;2022-07-29T07:44:34;100962.63;;;19.61;53.69
48244;BME280;34053;51.088;6.572;2022-07-29T07:47:05;100950.16;;;19.61;53.31
48244;BME280;34053;51.088;6.572;2022-07-29T07:49:35;100952.81;;;19.61;53.67
48244;BME280;34053;51.088;6.572;2022-07-29T07:52:08;100972.22;;;19.63;52.53
48244;BME280;34053;51.088;6.572;2022-07-29T07:54:39;100989.78;;;19.66;53.49
48244;BME280;34053;51.088;6.572;2022-07-29T07:57:10;101003.22;;;19.64;53.16
48244;BME280;34053;51.088;6.572;2022-07-29T07:59:41;101012.13;;;19.63;57.04
48244;BME280;34053;51.088;6.572;2022-07-29T08:02:14;101011.75;;;19.55;57.58
48244;BME280;34053;51.088;6.572;2022-07-29T08:04:48;101015.91;;;19.59;55.90
48244;BME280;34053;51.088;6.572;2022-07-29T08:07:18;101020.41;;;19.59;55.70
48244;BME280;34053;51.088;6.572;2022-07-29T08:09:49;101023.91;;;19.59;54.54
48244;BME280;34053;51.088;6.572;2022-07-29T08:12:19;101011.63;;;19.57;54.80
48244;BME280;34053;51.088;6.572;2022-07-29T08:14:50;101007.19;;;19.57;54.45
48244;BME280;34053;51.088;6.572;2022-07-29T08:17:20;101001.38;;;19.65;54.84
48244;BME280;34053;51.088;6.572;2022-07-29T08:19:51;100991.50;;;19.67;54.28
48244;BME280;34053;51.088;6.572;2022-07-29T08:22:21;100980.03;;;19.66;56.09
48244;BME280;34053;51.088;6.572;2022-07-29T08:24:51;100987.91;;;19.68;54.93
48244;BME280;34053;51.088;6.572;2022-07-29T08:27:23;100993.31;;;19.66;54.70
48244;BME280;34053;51.088;6.572;2022-07-29T08:29:53;101002.94;;;19.69;54.81
48244;BME280;34053;51.088;6.572;2022-07-29T08:32:25;101004.38;;;19.75;55.44
48244;BME280;34053;51.088;6.572;2022-07-29T08:34:58;101011.09;;;19.80;54.93
48244;BME280;34053;51.088;6.572;2022-07-29T08:37:29;101011.72;;;19.86;54.64
48244;BME280;34053;51.088;6.572;2022-07-29T08:39:59;101012.28;;;19.91;54.40
48244;BME280;34053;51.088;6.572;2022-07-29T08:42:30;101012.84;;;19.96;53.94
48244;BME280;34053;51.088;6.572;2022-07-29T08:45:00;101014.19;;;20.03;54.34
48244;BME280;34053;51.088;6.572;2022-07-29T08:47:32;101008.59;;;20.08;54.11
48244;BME280;34053;51.088;6.572;2022-07-29T08:50:03;101004.66;;;20.13;54.61
48244;BME280;34053;51.088;6.572;2022-07-29T08:52:39;101000.09;;;20.16;54.46
48244;BME280;34053;51.088;6.572;2022-07-29T08:55:10;100999.13;;;20.17;56.51
48244;BME280;34053;51.088;6.572;2022-07-29T08:57:41;100997.63;;;20.27;54.85
48244;BME280;34053;51.088;6.572;2022-07-29T09:00:11;100997.63;;;20.27;56.50
48244;BME280;34053;51.088;6.572;2022-07-29T09:02:47;101004.03;;;20.37;54.71
48244;BME280;34053;51.088;6.572;2022-07-29T09:05:23;101005.38;;;20.44;54.88
48244;BME280;34053;51.088;6.572;2022-07-29T09:07:54;101014.69;;;20.52;55.04
48244;BME280;34053;51.088;6.572;2022-07-29T09:10:25;101015.25;;;20.57;54.48
48244;BME280;34053;51.088;6.572;2022-07-29T09:12:56;101009.16;;;20.55;55.77
48244;BME280;34053;51.088;6.572;2022-07-29T09:15:27;101017.78;;;20.58;54.90
48244;BME280;34053;51.088;6.572;2022-07-29T09:17:58;101013.53;;;20.56;54.94
48244;BME280;34053;51.088;6.572;2022-07-29T09:20:30;101024.47;;;20.66;54.16
48244;BME280;34053;51.088;6.572;2022-07-29T09:23:20;101022.53;;;20.68;54.03
48244;BME280;34053;51.088;6.572;2022-07-29T09:25:52;101023.16;;;20.73;54.76
48244;BME280;34053;51.088;6.572;2022-07-29T09:28:22;101026.53;;;20.75;54.06
48244;BME280;34053;51.088;6.572;2022-07-29T09:30:57;101026.53;;;20.75;55.30
48244;BME280;34053;51.088;6.572;2022-07-29T09:33:33;101029.84;;;20.79;54.40
48244;BME280;34053;51.088;6.572;2022-07-29T09:36:09;101025.22;;;20.82;54.20
48244;BME280;34053;51.088;6.572;2022-07-29T09:38:59;101030.22;;;20.87;53.93
48244;BME280;34053;51.088;6.572;2022-07-29T09:41:43;101026.59;;;20.88;54.70
48244;BME280;34053;51.088;6.572;2022-07-29T09:44:16;101027.81;;;20.97;53.61
48244;BME280;34053;51.088;6.572;2022-07-29T09:49:28;101021.59;;;20.96;53.28
48244;BME280;34053;51.088;6.572;2022-07-29T09:52:06;101011.41;;;21.03;53.07
48244;BME280;34053;51.088;6.572;2022-07-29T09:54:46;101023.59;;;21.07;53.24
48244;BME280;34053;51.088;6.572;2022-07-29T10:00:03;101030.22;;;21.14;52.85
48244;BME280;34053;51.088;6.572;2022-07-29T10:02:36;101036.84;;;21.21;52.64
48244;BME280;34053;51.088;6.572;2022-07-29T10:05:26;101032.78;;;21.16;52.47
48244;BME280;34053;51.088;6.572;2022-07-29T10:07:58;101032.78;;;21.16;52.50
48244;BME280;34053;51.088;6.572;2022-07-29T10:10:32;101037.50;;;21.25;51.87
48244;BME280;34053;51.088;6.572;2022-07-29T10:13:09;101044.31;;;21.29;51.96
48244;BME280;34053;51.088;6.572;2022-07-29T10:15:44;101044.78;;;21.36;51.74
48244;BME280;34053;51.088;6.572;2022-07-29T10:18:15;101044.25;;;21.31;51.88
48244;BME280;34053;51.088;6.572;2022-07-29T10:20:51;101042.94;;;21.36;51.62
48244;BME280;34053;51.088;6.572;2022-07-29T10:23:22;101036.56;;;21.39;51.54
48244;BME280;34053;51.088;6.572;2022-07-29T10:25:53;101037.59;;;21.36;51.55
48244;BME280;34053;51.088;6.572;2022-07-29T10:28:26;101038.06;;;21.43;51.77
48244;BME280;34053;51.088;6.572;2022-07-29T10:31:05;101046.94;;;21.44;51.38
48244;BME280;34053;51.088;6.572;2022-07-29T10:36:56;101042.66;;;21.54;51.84
48244;BME280;34053;51.088;6.572;2022-07-29T10:39:56;101050.81;;;21.65;50.96
48244;BME280;34053;51.088;6.572;2022-07-29T10:42:30;101047.19;;;21.66;51.15
48244;BME280;34053;51.088;6.572;2022-07-29T10:45:03;101050.81;;;21.65;50.71
48244;BME280;34053;51.088;6.572;2022-07-29T10:47:34;101052.97;;;21.73;50.83
48244;BME280;34053;51.088;6.572;2022-07-29T10:50:05;101045.19;;;21.83;50.50
48244;BME280;34053;51.088;6.572;2022-07-29T10:52:55;101041.75;;;21.81;50.36
48244;BME280;34053;51.088;6.572;2022-07-29T10:58:24;101044.22;;;21.97;50.48
48244;BME280;34053;51.088;6.572;2022-07-29T11:00:55;101047.41;;;22.02;49.99
48244;BME280;34053;51.088;6.572;2022-07-29T11:03:47;101041.00;;;22.05;50.04
48244;BME280;34053;51.088;6.572;2022-07-29T11:06:18;101040.53;;;22.11;50.39
48244;BME280;34053;51.088;6.572;2022-07-29T11:09:15;101040.13;;;22.17;49.40
48244;BME280;34053;51.088;6.572;2022-07-29T11:11:47;101034.66;;;22.19;49.66
48244;BME280;34053;51.088;6.572;2022-07-29T11:17:29;101038.59;;;22.39;49.66
48244;BME280;34053;51.088;6.572;2022-07-29T11:20:34;101035.91;;;22.39;50.27
48244;BME280;34053;51.088;6.572;2022-07-29T11:23:21;101028.50;;;22.55;49.13
48244;BME280;34053;51.088;6.572;2022-07-29T11:34:31;101024.78;;;22.82;49.96
48244;BME280;34053;51.088;6.572;2022-07-29T11:44:59;101024.84;;;23.18;49.10
48244;BME280;34053;51.088;6.572;2022-07-29T11:48:02;101030.50;;;23.37;49.25
48244;BME280;34053;51.088;6.572;2022-07-29T11:50:38;101036.69;;;23.38;48.98
48244;BME280;34053;51.088;6.572;2022-07-29T11:53:11;101036.47;;;23.41;48.98
48244;BME280;34053;51.088;6.572;2022-07-29T11:55:43;101036.00;;;23.47;48.88
48244;BME280;34053;51.088;6.572;2022-07-29T11:58:13;101037.44;;;23.51;48.85
48244;BME280;34053;51.088;6.572;2022-07-29T12:00:46;101031.88;;;23.54;48.73
48244;BME280;34053;51.088;6.572;2022-07-29T12:03:26;101036.66;;;23.62;48.08
48244;BME280;34053;51.088;6.572;2022-07-29T12:05:56;101040.44;;;23.71;47.03
48244;BME280;34053;51.088;6.572;2022-07-29T12:08:27;101037.53;;;23.74;46.96
48244;BME280;34053;51.088;6.572;2022-07-29T12:11:00;101040.91;;;23.76;47.88
48244;BME280;34053;51.088;6.572;2022-07-29T12:13:38;101044.09;;;23.81;47.16
48244;BME280;34053;51.088;6.572;2022-07-29T12:16:09;101040.44;;;23.82;47.28
48244;BME280;34053;51.088;6.572;2022-07-29T12:18:40;101036.81;;;23.95;46.82
48244;BME280;34053;51.088;6.572;2022-07-29T12:21:10;101034.13;;;23.95;46.23
48244;BME280;34053;51.088;6.572;2022-07-29T12:23:52;101031.97;;;24.00;46.91
48244;BME280;34053;51.088;6.572;2022-07-29T12:26:23;101039.00;;;24.01;46.76
48244;BME280;34053;51.088;6.572;2022-07-29T12:28:54;101040.00;;;24.11;45.95
48244;BME280;34053;51.088;6.572;2022-07-29T12:31:24;101024.41;;;24.16;45.81
48244;BME280;34053;51.088;6.572;2022-07-29T12:33:58;101032.19;;;24.19;46.55
48244;BME280;34053;51.088;6.572;2022-07-29T12:36:29;101033.66;;;24.24;46.13
48244;BME280;34053;51.088;6.572;2022-07-29T12:39:02;101039.00;;;24.35;45.84
48244;BME280;34053;51.088;6.572;2022-07-29T12:41:32;101036.09;;;24.38;46.42
48244;BME280;34053;51.088;6.572;2022-07-29T12:44:03;101031.44;;;24.40;46.25
48244;BME280;34053;51.088;6.572;2022-07-29T12:46:34;101021.19;;;24.45;46.57
48244;BME280;34053;51.088;6.572;2022-07-29T12:49:05;101029.59;;;24.52;45.13
48244;BME280;34053;51.088;6.572;2022-07-29T12:51:38;101025.22;;;24.51;45.72
48244;BME280;34053;51.088;6.572;2022-07-29T12:54:13;101021.66;;;24.62;45.54
48244;BME280;34053;51.088;6.572;2022-07-29T12:56:44;101027.97;;;24.61;44.99
48244;BME280;34053;51.088;6.572;2022-07-29T12:59:16;101023.94;;;24.66;45.10
48244;BME280;34053;51.088;6.572;2022-07-29T13:01:50;101021.16;;;24.68;45.26
48244;BME280;34053;51.088;6.572;2022-07-29T13:04:28;101019.66;;;24.75;44.38
48244;BME280;34053;51.088;6.572;2022-07-29T13:07:04;101021.81;;;24.93;43.99
48244;BME280;34053;51.088;6.572;2022-07-29T13:09:39;101023.28;;;24.97;44.50
48244;BME280;34053;51.088;6.572;2022-07-29T13:12:14;101028.78;;;24.95;44.84
48244;BME280;34053;51.088;6.572;2022-07-29T13:14:48;101020.94;;;25.04;44.17
48244;BME280;34053;51.088;6.572;2022-07-29T13:17:22;101032.97;;;25.09;42.73
48244;BME280;34053;51.088;6.572;2022-07-29T13:20:08;101025.97;;;24.97;43.27
48244;BME280;34053;51.088;6.572;2022-07-29T13:22:42;101037.13;;;25.13;43.04
48244;BME280;34053;51.088;6.572;2022-07-29T13:25:13;101030.88;;;25.13;43.12
48244;BME280;34053;51.088;6.572;2022-07-29T13:27:43;101019.75;;;25.18;43.74
48244;BME280;34053;51.088;6.572;2022-07-29T13:30:15;101015.09;;;25.20;43.53
48244;BME280;34053;51.088;6.572;2022-07-29T13:32:51;101018.44;;;25.33;43.13
48244;BME280;34053;51.088;6.572;2022-07-29T13:35:22;101018.34;;;25.35;42.59
48244;BME280;34053;51.088;6.572;2022-07-29T13:37:52;101015.00;;;25.42;42.94
48244;BME280;34053;51.088;6.572;2022-07-29T13:40:23;101008.25;;;25.48;42.58
48244;BME280;34053;51.088;6.572;2022-07-29T13:42:53;101006.31;;;25.50;42.98
48244;BME280;34053;51.088;6.572;2022-07-29T13:45:24;101001.84;;;25.60;42.97
48244;BME280;34053;51.088;6.572;2022-07-29T13:47:54;101001.88;;;25.70;42.58
48244;BME280;34053;51.088;6.572;2022-07-29T13:50:25;101005.31;;;25.72;42.97
48244;BME280;34053;51.088;6.572;2022-07-29T13:52:55;100998.56;;;25.88;40.37
48244;BME280;34053;51.088;6.572;2022-07-29T13:55:26;101003.22;;;25.86;40.77
48244;BME280;34053;51.088;6.572;2022-07-29T13:57:56;100995.47;;;25.92;40.60
48244;BME280;34053;51.088;6.572;2022-07-29T14:00:27;101008.44;;;26.08;41.01
48244;BME280;34053;51.088;6.572;2022-07-29T14:02:57;101005.03;;;26.06;41.12